createdAt,value
2017-11-15T00:01:15.399Z,93.80
2017-11-15T00:03:44.148Z,94.30
2017-11-15T00:06:11.921Z,94.30
2017-11-15T00:08:41.017Z,94.10
2017-11-15T00:11:08.961Z,94.30
2017-11-15T00:13:41.214Z,94.60
2017-11-15T00:16:09.694Z,94.60
2017-11-15T00:18:44.545Z,94.40
2017-11-15T00:21:13.097Z,94.40
2017-11-15T00:23:43.741Z,93.90
2017-11-15T00:26:14.571Z,93.90
2017-11-15T00:28:43.416Z,93.90
2017-11-15T00:31:13.173Z,93.80
2017-11-15T00:33:41.684Z,93.60
2017-11-15T00:36:10.394Z,94.00
2017-11-15T00:38:39.809Z,94.00
2017-11-15T00:41:09.773Z,94.00
2017-11-15T00:43:38.281Z,94.10
2017-11-15T00:46:08.329Z,94.00
2017-11-15T00:48:39.082Z,93.80
2017-11-15T00:51:07.874Z,93.70
2017-11-15T00:53:37.623Z,93.90
2017-11-15T00:56:07.476Z,94.00
2017-11-15T00:58:37.771Z,94.30
2017-11-15T01:01:07.379Z,94.30
2017-11-15T01:03:37.470Z,94.20
2017-11-15T01:06:08.481Z,94.30
2017-11-15T01:08:38.133Z,94.00
2017-11-15T01:11:07.513Z,94.40
2017-11-15T01:13:36.799Z,94.30
2017-11-15T01:16:06.521Z,94.40
2017-11-15T01:18:35.698Z,94.50
2017-11-15T01:21:07.108Z,94.40
2017-11-15T01:23:38.893Z,94.20
2017-11-15T01:26:07.628Z,94.60
2017-11-15T01:28:37.284Z,94.40
2017-11-15T01:31:05.145Z,94.30
2017-11-15T01:33:34.480Z,94.00
2017-11-15T01:36:03.843Z,94.00
2017-11-15T01:38:33.856Z,93.90
2017-11-15T01:41:02.200Z,93.90
2017-11-15T01:43:29.781Z,94.20
2017-11-15T01:45:58.087Z,94.30
2017-11-15T01:48:25.661Z,94.30
2017-11-15T01:50:53.186Z,94.50
2017-11-15T01:53:21.398Z,94.60
2017-11-15T01:55:49.731Z,94.20
2017-11-15T01:58:18.009Z,94.20
2017-11-15T02:00:58.081Z,94.10
2017-11-15T02:03:25.651Z,93.80
2017-11-15T02:05:53.185Z,93.70
2017-11-15T02:08:21.520Z,94.10
2017-11-15T02:10:49.053Z,94.10
2017-11-15T02:13:17.344Z,94.40
2017-11-15T02:15:45.664Z,94.10
2017-11-15T02:18:13.609Z,94.10
2017-11-15T02:20:41.192Z,94.30
2017-11-15T02:23:10.495Z,94.30
2017-11-15T02:25:38.181Z,94.20
2017-11-15T02:28:06.690Z,94.10
2017-11-15T02:30:34.768Z,94.10
2017-11-15T02:33:03.093Z,94.00
2017-11-15T02:35:31.397Z,94.20
2017-11-15T02:37:59.519Z,94.40
2017-11-15T02:40:27.945Z,94.50
2017-11-15T02:42:56.424Z,94.10
2017-11-15T02:45:24.413Z,94.30
2017-11-15T02:47:51.962Z,94.20
2017-11-15T02:50:19.540Z,94.00
2017-11-15T02:52:47.071Z,94.10
2017-11-15T02:55:14.687Z,93.60
2017-11-15T02:57:43.411Z,94.30
2017-11-15T03:00:12.147Z,94.10
2017-11-15T03:02:40.051Z,94.20
2017-11-15T03:05:09.057Z,94.00
2017-11-15T03:07:36.981Z,93.90
2017-11-15T03:10:06.525Z,94.10
2017-11-15T03:12:34.910Z,94.10
2017-11-15T03:15:03.066Z,94.00
2017-11-15T03:17:31.282Z,94.00
2017-11-15T03:19:59.320Z,94.10
2017-11-15T03:22:26.853Z,94.20
2017-11-15T03:24:55.067Z,94.00
2017-11-15T03:27:23.536Z,94.50
2017-11-15T03:29:52.081Z,94.40
2017-11-15T03:32:20.400Z,94.20
2017-11-15T03:34:48.753Z,94.20
2017-11-15T03:37:16.301Z,94.20
2017-11-15T03:39:44.686Z,94.00
2017-11-15T03:42:12.326Z,94.10
2017-11-15T03:44:41.699Z,94.10
2017-11-15T03:47:10.316Z,94.20
2017-11-15T03:49:39.020Z,94.00
2017-11-15T03:52:06.959Z,93.90
2017-11-15T03:54:37.229Z,93.90
2017-11-15T03:57:07.932Z,93.60
2017-11-15T03:59:36.699Z,93.80
2017-11-15T04:02:06.081Z,93.60
2017-11-15T04:04:34.196Z,93.90
2017-11-15T04:07:02.242Z,93.60
2017-11-15T04:09:30.773Z,93.80
2017-11-15T04:12:00.314Z,93.60
2017-11-15T04:14:28.113Z,93.60
2017-11-15T04:16:57.128Z,94.00
2017-11-15T04:19:24.692Z,93.80
2017-11-15T04:21:52.253Z,93.90
2017-11-15T04:24:19.845Z,93.80
2017-11-15T04:26:48.808Z,93.70
2017-11-15T04:29:17.222Z,93.70
2017-11-15T04:31:45.789Z,93.90
2017-11-15T04:34:14.424Z,93.80
2017-11-15T04:36:42.985Z,93.80
2017-11-15T04:39:12.846Z,93.70
2017-11-15T04:41:41.149Z,93.70
2017-11-15T04:44:09.079Z,93.80
2017-11-15T04:46:37.790Z,93.90
2017-11-15T04:49:06.996Z,93.60
2017-11-15T04:51:37.030Z,93.80
2017-11-15T04:54:09.005Z,93.70
2017-11-15T04:56:38.658Z,93.60
2017-11-15T04:59:08.719Z,93.40
2017-11-15T05:01:39.177Z,93.40
2017-11-15T05:04:08.691Z,93.70
2017-11-15T05:06:37.801Z,93.50
2017-11-15T05:09:07.920Z,93.40
2017-11-15T05:11:39.167Z,93.70
2017-11-15T05:14:08.465Z,93.80
2017-11-15T05:16:38.580Z,93.80
2017-11-15T05:19:08.027Z,94.20
2017-11-15T05:21:38.337Z,94.60
2017-11-15T05:24:08.898Z,94.50
2017-11-15T05:26:39.973Z,94.40
2017-11-15T05:29:10.873Z,93.90
2017-11-15T05:31:40.779Z,93.90
2017-11-15T05:34:09.492Z,94.10
2017-11-15T05:36:40.597Z,93.70
2017-11-15T05:39:10.409Z,93.50
2017-11-15T05:41:41.496Z,93.70
2017-11-15T05:44:12.345Z,93.70
2017-11-15T05:46:42.002Z,93.70
2017-11-15T05:49:10.692Z,93.60
2017-11-15T05:51:40.282Z,93.60
2017-11-15T05:54:09.984Z,93.50
2017-11-15T05:56:39.264Z,93.20
2017-11-15T05:59:09.680Z,93.20
2017-11-15T06:01:44.265Z,93.20
2017-11-15T06:04:13.619Z,93.00
2017-11-15T06:06:42.922Z,92.80
2017-11-15T06:09:13.531Z,93.00
2017-11-15T06:11:43.552Z,93.30
2017-11-15T06:14:15.432Z,93.80
2017-11-15T06:16:43.695Z,94.10
2017-11-15T06:19:11.735Z,94.20
2017-11-15T06:21:41.291Z,94.50
2017-11-15T06:24:11.053Z,94.40
2017-11-15T06:26:40.040Z,94.10
2017-11-15T06:29:09.519Z,94.10
2017-11-15T06:31:41.855Z,94.20
2017-11-15T06:34:11.172Z,94.20
2017-11-15T06:36:39.712Z,94.20
2017-11-15T06:39:10.365Z,94.20
2017-11-15T06:41:39.597Z,94.20
2017-11-15T06:44:08.487Z,94.60
2017-11-15T06:46:39.519Z,94.40
2017-11-15T06:49:10.518Z,93.90
2017-11-15T06:51:38.875Z,93.90
2017-11-15T06:54:07.735Z,94.10
2017-11-15T06:56:41.649Z,94.10
2017-11-15T06:59:11.963Z,94.00
2017-11-15T07:01:48.586Z,93.90
2017-11-15T07:04:16.214Z,93.80
2017-11-15T07:06:44.697Z,93.60
2017-11-15T07:09:13.222Z,93.50
2017-11-15T07:11:44.933Z,94.00
2017-11-15T07:14:13.427Z,94.10
2017-11-15T07:16:41.748Z,93.90
2017-11-15T07:19:10.403Z,94.10
2017-11-15T07:21:40.344Z,94.10
2017-11-15T07:24:09.348Z,94.50
2017-11-15T07:26:37.860Z,94.50
2017-11-15T07:29:06.708Z,94.60
2017-11-15T07:31:36.958Z,95.20
2017-11-15T07:34:06.943Z,95.20
2017-11-15T07:36:37.164Z,95.20
2017-11-15T07:39:09.482Z,95.60
2017-11-15T07:41:44.553Z,95.40
2017-11-15T07:44:12.490Z,95.50
2017-11-15T07:46:40.472Z,95.90
2017-11-15T07:49:09.609Z,95.90
2017-11-15T07:51:38.390Z,95.80
2017-11-15T07:54:11.484Z,95.60
2017-11-15T07:56:41.272Z,95.10
2017-11-15T07:59:12.410Z,95.10
2017-11-15T08:01:40.557Z,95.20
2017-11-15T08:04:08.551Z,94.90
2017-11-15T08:06:37.418Z,94.90
2017-11-15T08:09:06.467Z,94.90
2017-11-15T08:11:36.217Z,94.90
2017-11-15T08:14:05.535Z,94.90
2017-11-15T08:16:36.385Z,95.00
2017-11-15T08:19:06.681Z,94.90
2017-11-15T08:21:37.025Z,94.90
2017-11-15T08:24:06.110Z,95.50
2017-11-15T08:26:34.993Z,95.60
2017-11-15T08:29:04.504Z,95.50
2017-11-15T08:31:35.865Z,94.80
2017-11-15T08:34:05.347Z,94.80
2017-11-15T08:36:34.441Z,95.00
2017-11-15T08:39:03.995Z,94.70
2017-11-15T08:41:36.366Z,93.80
2017-11-15T08:44:05.847Z,93.80
2017-11-15T08:46:38.508Z,93.70
2017-11-15T08:49:09.306Z,93.50
2017-11-15T08:51:37.949Z,94.00
2017-11-15T08:54:09.178Z,93.30
2017-11-15T08:56:43.387Z,92.40
2017-11-15T08:59:12.485Z,92.50
2017-11-15T09:01:40.669Z,92.60
2017-11-15T09:04:09.101Z,92.90
2017-11-15T09:06:37.958Z,93.70
2017-11-15T09:09:07.623Z,93.70
2017-11-15T09:11:35.806Z,94.30
2017-11-15T09:14:05.363Z,94.20
2017-11-15T09:16:35.999Z,94.50
2017-11-15T09:19:10.232Z,94.50
2017-11-15T09:21:44.196Z,94.70
2017-11-15T09:24:14.841Z,94.40
2017-11-15T09:26:46.566Z,94.40
2017-11-15T09:29:14.503Z,93.80
2017-11-15T09:31:43.571Z,94.70
2017-11-15T09:34:13.655Z,94.80
2017-11-15T09:36:42.145Z,94.60
2017-11-15T09:39:10.744Z,94.80
2017-11-15T09:41:40.112Z,94.60
2017-11-15T09:44:09.444Z,93.90
2017-11-15T09:46:38.507Z,93.80
2017-11-15T09:49:08.808Z,93.60
2017-11-15T09:51:39.717Z,93.70
2017-11-15T09:54:09.243Z,93.20
2017-11-15T09:56:38.428Z,93.20
2017-11-15T09:59:12.139Z,93.10
2017-11-15T10:01:43.896Z,93.40
2017-11-15T10:04:12.961Z,93.00
2017-11-15T10:06:43.447Z,92.80
2017-11-15T10:09:12.403Z,92.70
2017-11-15T10:11:41.426Z,93.30
2017-11-15T10:14:11.433Z,92.70
2017-11-15T10:16:44.226Z,92.70
2017-11-15T10:19:13.606Z,92.70
2017-11-15T10:21:45.180Z,92.20
2017-11-15T10:24:14.032Z,92.20
2017-11-15T10:26:42.666Z,91.40
2017-11-15T10:29:11.631Z,91.60
2017-11-15T10:31:41.717Z,90.70
2017-11-15T10:34:10.909Z,90.90
2017-11-15T10:36:39.837Z,91.30
2017-11-15T10:39:09.571Z,91.10
2017-11-15T10:41:38.041Z,91.10
2017-11-15T10:44:06.395Z,91.80
2017-11-15T10:46:35.950Z,91.50
2017-11-15T10:49:05.602Z,91.80
2017-11-15T10:51:33.674Z,91.80
2017-11-15T10:54:02.168Z,91.30
2017-11-15T10:56:30.117Z,91.30
2017-11-15T10:58:57.746Z,91.50
2017-11-15T11:01:26.093Z,92.10
2017-11-15T11:03:53.633Z,92.10
2017-11-15T11:06:21.205Z,92.30
2017-11-15T11:08:49.720Z,92.40
2017-11-15T11:11:17.297Z,92.50
2017-11-15T11:13:44.841Z,92.20
2017-11-15T11:16:13.225Z,92.50
2017-11-15T11:18:41.528Z,92.40
2017-11-15T11:21:09.255Z,92.40
2017-11-15T11:23:36.860Z,92.20
2017-11-15T11:26:04.529Z,92.00
2017-11-15T11:28:33.402Z,92.10
2017-11-15T11:31:01.464Z,92.40
2017-11-15T11:33:29.308Z,92.30
2017-11-15T11:35:56.998Z,92.50
2017-11-15T11:38:24.853Z,92.40
2017-11-15T11:40:53.197Z,92.70
2017-11-15T11:43:20.745Z,92.70
2017-11-15T11:45:48.414Z,92.70
2017-11-15T11:48:15.970Z,92.80
2017-11-15T11:50:44.301Z,92.70
2017-11-15T11:53:12.065Z,92.70
2017-11-15T11:55:41.053Z,92.70
2017-11-15T11:58:09.416Z,92.90
2017-11-15T12:00:38.980Z,92.90
2017-11-15T12:03:07.746Z,92.90
2017-11-15T12:05:35.617Z,93.20
2017-11-15T12:08:03.473Z,92.80
2017-11-15T12:10:34.531Z,92.70
2017-11-15T12:13:03.624Z,92.40
2017-11-15T12:15:33.209Z,92.60
2017-11-15T12:18:04.479Z,93.00
2017-11-15T12:20:34.223Z,93.00
2017-11-15T12:23:05.395Z,92.50
2017-11-15T12:25:35.423Z,92.00
2017-11-15T12:28:05.099Z,91.90
2017-11-15T12:30:35.233Z,91.70
2017-11-15T12:33:06.407Z,91.50
2017-11-15T12:35:37.338Z,91.50
2017-11-15T12:38:06.063Z,91.50
2017-11-15T12:40:35.748Z,91.20
2017-11-15T12:43:04.905Z,91.20
2017-11-15T12:45:37.114Z,91.40
2017-11-15T12:48:05.875Z,91.40
2017-11-15T12:50:34.524Z,91.70
2017-11-15T12:53:04.264Z,92.00
2017-11-15T12:55:35.719Z,91.70
2017-11-15T12:58:03.926Z,91.50
2017-11-15T13:00:34.317Z,91.60
2017-11-15T13:03:04.079Z,91.40
2017-11-15T13:05:34.281Z,91.00
2017-11-15T13:08:04.570Z,91.20
2017-11-15T13:10:36.503Z,91.30
2017-11-15T13:13:05.107Z,91.20
2017-11-15T13:15:35.273Z,91.70
2017-11-15T13:18:06.444Z,91.80
2017-11-15T13:20:34.991Z,91.80
2017-11-15T13:23:04.648Z,91.70
2017-11-15T13:25:34.986Z,92.00
2017-11-15T13:28:04.597Z,91.80
2017-11-15T13:30:35.016Z,91.90
2017-11-15T13:33:05.181Z,91.90
2017-11-15T13:35:34.753Z,92.20
2017-11-15T13:38:04.324Z,92.50
2017-11-15T13:40:35.156Z,92.60
2017-11-15T13:43:04.620Z,92.60
2017-11-15T13:45:34.596Z,92.30
2017-11-15T13:48:03.202Z,92.20
2017-11-15T13:50:31.700Z,92.00
2017-11-15T13:53:00.489Z,92.00
2017-11-15T13:55:28.286Z,92.00
2017-11-15T13:57:56.600Z,92.10
2017-11-15T14:00:24.929Z,92.40
2017-11-15T14:02:52.485Z,92.40
2017-11-15T14:05:20.031Z,92.60
2017-11-15T14:07:48.359Z,92.60
2017-11-15T14:10:15.937Z,92.60
2017-11-15T14:12:43.491Z,92.40
2017-11-15T14:15:11.282Z,92.20
2017-11-15T14:17:39.118Z,92.10
2017-11-15T14:20:06.904Z,91.90
2017-11-15T14:22:36.722Z,92.30
2017-11-15T14:25:04.796Z,92.30
2017-11-15T14:27:33.372Z,92.50
2017-11-15T14:30:02.878Z,92.70
2017-11-15T14:32:32.355Z,92.70
2017-11-15T14:35:02.236Z,92.40
2017-11-15T14:37:31.683Z,92.10
2017-11-15T14:40:03.839Z,92.00
2017-11-15T14:42:35.658Z,91.90
2017-11-15T14:45:06.248Z,92.00
2017-11-15T14:47:34.554Z,92.20
2017-11-15T14:50:03.257Z,92.30
2017-11-15T14:52:32.554Z,92.10
2017-11-15T14:55:04.660Z,92.20
2017-11-15T14:57:34.180Z,92.10
2017-11-15T15:00:13.210Z,91.60
2017-11-15T15:02:41.413Z,91.60
2017-11-15T15:05:09.420Z,91.70
2017-11-15T15:07:37.323Z,91.80
2017-11-15T15:10:05.563Z,91.90
2017-11-15T15:12:34.150Z,92.10
2017-11-15T15:15:04.266Z,91.90
2017-11-15T15:17:35.649Z,91.90
2017-11-15T15:20:04.815Z,92.40
2017-11-15T15:22:34.950Z,92.50
2017-11-15T15:25:05.985Z,92.70
2017-11-15T15:27:36.715Z,92.70
2017-11-15T15:30:09.816Z,93.10
2017-11-15T15:32:44.878Z,95.70
2017-11-15T15:35:13.108Z,98.00
2017-11-15T15:37:41.612Z,97.60
2017-11-15T15:40:12.875Z,94.80
2017-11-15T15:42:42.489Z,94.10
2017-11-15T15:45:10.646Z,95.40
2017-11-15T15:47:38.898Z,94.40
2017-11-15T15:50:08.410Z,93.90
2017-11-15T15:52:38.411Z,94.50
2017-11-15T15:55:06.473Z,94.40
2017-11-15T15:57:37.239Z,94.40
2017-11-15T16:00:06.381Z,94.30
2017-11-15T16:02:35.862Z,93.70
2017-11-15T16:05:05.186Z,93.80
2017-11-15T16:07:35.385Z,93.40
2017-11-15T16:10:06.195Z,93.50
2017-11-15T16:12:35.754Z,93.90
2017-11-15T16:15:04.332Z,94.10
2017-11-15T16:17:35.618Z,94.20
2017-11-15T16:20:04.511Z,93.90
2017-11-15T16:22:34.653Z,94.10
2017-11-15T16:25:08.029Z,93.80
2017-11-15T16:27:36.398Z,93.80
2017-11-15T16:30:06.129Z,93.70
2017-11-15T16:32:35.537Z,93.40
2017-11-15T16:35:07.653Z,93.50
2017-11-15T16:37:36.603Z,93.20
2017-11-15T16:40:05.651Z,93.20
2017-11-15T16:42:34.974Z,93.50
2017-11-15T16:45:05.270Z,93.50
2017-11-15T16:47:35.685Z,93.80
2017-11-15T16:50:05.536Z,93.60
2017-11-15T16:52:35.599Z,93.80
2017-11-15T16:55:05.657Z,93.80
2017-11-15T16:57:36.180Z,94.00
2017-11-15T17:00:05.944Z,94.30
2017-11-15T17:02:35.549Z,94.30
2017-11-15T17:05:04.798Z,94.50
2017-11-15T17:07:34.193Z,94.70
2017-11-15T17:10:03.768Z,94.50
2017-11-15T17:12:33.752Z,94.90
2017-11-15T17:15:06.638Z,94.50
2017-11-15T17:17:35.273Z,94.70
2017-11-15T17:20:04.681Z,93.90
2017-11-15T17:22:43.098Z,93.80
2017-11-15T17:25:12.555Z,93.70
2017-11-15T17:27:40.591Z,93.70
2017-11-15T17:30:10.160Z,93.70
2017-11-15T17:32:38.533Z,93.40
2017-11-15T17:35:06.432Z,93.30
2017-11-15T17:37:35.408Z,93.00
2017-11-15T17:40:05.034Z,92.90
2017-11-15T17:42:35.044Z,93.40
2017-11-15T17:45:05.149Z,92.90
2017-11-15T17:47:34.639Z,92.90
2017-11-15T17:50:04.166Z,93.20
2017-11-15T17:52:33.464Z,93.30
2017-11-15T17:55:02.263Z,93.50
2017-11-15T17:57:30.712Z,93.50
2017-11-15T17:59:58.381Z,93.60
2017-11-15T18:02:25.991Z,93.40
2017-11-15T18:04:53.562Z,93.40
2017-11-15T18:07:21.092Z,93.40
2017-11-15T18:09:48.666Z,93.50
2017-11-15T18:12:16.214Z,93.40
2017-11-15T18:14:43.777Z,93.60
2017-11-15T18:17:11.575Z,93.70
2017-11-15T18:19:40.206Z,93.80
2017-11-15T18:22:08.057Z,93.70
2017-11-15T18:24:36.471Z,93.90
2017-11-15T18:27:04.107Z,93.90
2017-11-15T18:29:32.177Z,93.80
2017-11-15T18:32:00.043Z,93.80
2017-11-15T18:34:27.683Z,93.80
2017-11-15T18:36:55.252Z,93.90
2017-11-15T18:39:23.589Z,93.60
2017-11-15T18:41:51.910Z,93.60
2017-11-15T18:44:19.484Z,93.60
2017-11-15T18:46:47.050Z,93.50
2017-11-15T18:49:15.390Z,92.60
2017-11-15T18:51:43.886Z,92.60
2017-11-15T18:54:11.469Z,92.30
2017-11-15T18:56:39.923Z,92.30
2017-11-15T18:59:07.633Z,92.20
2017-11-15T19:01:36.046Z,92.20
2017-11-15T19:04:04.451Z,92.50
2017-11-15T19:06:32.849Z,92.40
2017-11-15T19:09:01.157Z,92.30
2017-11-15T19:11:28.734Z,92.60
2017-11-15T19:13:57.272Z,92.50
2017-11-15T19:16:24.817Z,92.60
2017-11-15T19:18:52.354Z,92.70
2017-11-15T19:21:20.697Z,92.60
2017-11-15T19:23:49.048Z,92.60
2017-11-15T19:26:17.340Z,92.40
2017-11-15T19:28:46.569Z,92.50
2017-11-15T19:31:14.138Z,92.40
2017-11-15T19:33:42.588Z,92.60
2017-11-15T19:36:10.588Z,92.60
2017-11-15T19:38:40.451Z,92.70
2017-11-15T19:41:09.518Z,92.80
2017-11-15T19:43:38.121Z,93.10
2017-11-15T19:46:06.470Z,92.70
2017-11-15T19:48:34.610Z,92.60
2017-11-15T19:51:03.440Z,92.80
2017-11-15T19:53:32.036Z,92.80
2017-11-15T19:56:00.966Z,92.30
2017-11-15T19:58:28.581Z,92.30
2017-11-15T20:00:56.649Z,92.10
2017-11-15T20:03:24.201Z,92.10
2017-11-15T20:05:51.773Z,92.30
2017-11-15T20:08:19.295Z,92.40
2017-11-15T20:10:46.895Z,92.70
2017-11-15T20:13:14.432Z,92.50
2017-11-15T20:15:42.777Z,92.60
2017-11-15T20:18:10.924Z,92.60
2017-11-15T20:20:38.765Z,92.50
2017-11-15T20:23:06.915Z,92.40
2017-11-15T20:25:36.068Z,92.30
2017-11-15T20:28:06.073Z,92.40
2017-11-15T20:30:33.825Z,92.30
2017-11-15T20:33:02.049Z,92.30
2017-11-15T20:35:30.576Z,92.10
2017-11-15T20:38:00.678Z,92.30
2017-11-15T20:40:28.317Z,92.30
2017-11-15T20:42:55.861Z,92.40
2017-11-15T20:45:25.124Z,92.40
2017-11-15T20:47:52.654Z,92.40
2017-11-15T20:50:20.234Z,92.40
2017-11-15T20:52:47.813Z,92.40
2017-11-15T20:55:15.951Z,92.40
2017-11-15T20:57:44.244Z,92.20
2017-11-15T21:00:12.856Z,92.20
2017-11-15T21:02:40.963Z,92.00
2017-11-15T21:05:09.536Z,91.80
2017-11-15T21:07:37.509Z,91.80
2017-11-15T21:10:07.625Z,91.60
2017-11-15T21:12:36.993Z,91.60
2017-11-15T21:15:05.091Z,91.80
2017-11-15T21:17:33.661Z,91.80
2017-11-15T21:20:03.429Z,92.10
2017-11-15T21:22:32.556Z,92.30
2017-11-15T21:25:01.969Z,92.10
2017-11-15T21:27:31.271Z,92.10
2017-11-15T21:29:59.759Z,92.30
2017-11-15T21:32:27.309Z,92.60
2017-11-15T21:34:55.646Z,92.70
2017-11-15T21:37:23.204Z,92.60
2017-11-15T21:39:50.898Z,92.30
2017-11-15T21:42:18.486Z,92.30
2017-11-15T21:44:46.180Z,92.60
2017-11-15T21:47:13.842Z,92.70
2017-11-15T21:49:41.488Z,92.70
2017-11-15T21:52:09.197Z,93.00
2017-11-15T21:54:37.660Z,92.50
2017-11-15T21:57:05.620Z,92.40
2017-11-15T21:59:33.747Z,92.80
2017-11-15T22:02:03.179Z,92.60
2017-11-15T22:04:31.597Z,92.60
2017-11-15T22:07:01.888Z,92.20
2017-11-15T22:09:30.147Z,92.20
2017-11-15T22:11:57.799Z,92.10
2017-11-15T22:14:25.424Z,92.10
2017-11-15T22:16:53.971Z,92.10
2017-11-15T22:19:22.303Z,92.20
2017-11-15T22:21:50.749Z,92.40
2017-11-15T22:24:19.023Z,92.50
2017-11-15T22:26:47.669Z,92.20
2017-11-15T22:29:16.565Z,92.20
2017-11-15T22:31:44.187Z,91.90
2017-11-15T22:34:12.029Z,91.90
2017-11-15T22:36:39.703Z,91.80
2017-11-15T22:39:07.524Z,92.10
2017-11-15T22:41:35.190Z,92.30
2017-11-15T22:44:04.005Z,92.00
2017-11-15T22:46:33.957Z,92.00
2017-11-15T22:49:03.493Z,92.00
2017-11-15T22:51:32.256Z,92.20
2017-11-15T22:53:59.879Z,91.90
2017-11-15T22:56:28.213Z,92.10
2017-11-15T22:58:55.782Z,92.20
2017-11-15T23:01:23.328Z,91.90
2017-11-15T23:03:50.902Z,92.10
2017-11-15T23:06:18.657Z,92.30
2017-11-15T23:08:46.558Z,92.00
2017-11-15T23:11:14.180Z,92.50
2017-11-15T23:13:42.306Z,92.70
2017-11-15T23:16:11.393Z,92.90
2017-11-15T23:18:38.950Z,92.70
2017-11-15T23:21:06.521Z,93.10
2017-11-15T23:23:34.935Z,92.50
2017-11-15T23:26:02.557Z,92.50
2017-11-15T23:28:30.162Z,92.40
2017-11-15T23:30:58.510Z,92.90
2017-11-15T23:33:26.045Z,92.90
2017-11-15T23:35:53.630Z,92.30
2017-11-15T23:38:21.157Z,92.30
2017-11-15T23:40:49.096Z,92.10
2017-11-15T23:43:18.590Z,92.30
2017-11-15T23:45:53.233Z,92.00
2017-11-15T23:48:21.505Z,92.00
2017-11-15T23:50:50.458Z,91.90
2017-11-15T23:53:25.418Z,92.00
2017-11-15T23:56:01.455Z,92.00
2017-11-15T23:58:28.993Z,91.50
